sensor_id;sensor_type;location;lat;lon;timestamp;temperature;humidity
72440;DHT22;60446;50.752;4.352;2023-05-03T00:02:23;5.90;68.20
72440;DHT22;60446;50.752;4.352;2023-05-03T00:04:53;5.90;67.30
72440;DHT22;60446;50.752;4.352;2023-05-03T00:07:21;5.90;67.20
72440;DHT22;60446;50.752;4.352;2023-05-03T00:09:48;5.90;66.90
72440;DHT22;60446;50.752;4.352;2023-05-03T00:12:16;5.90;67.70
72440;DHT22;60446;50.752;4.352;2023-05-03T00:14:44;5.90;67.30
72440;DHT22;60446;50.752;4.352;2023-05-03T00:17:12;5.80;67.60
72440;DHT22;60446;50.752;4.352;2023-05-03T00:19:39;5.80;67.00
72440;DHT22;60446;50.752;4.352;2023-05-03T00:22:08;5.80;67.10
72440;DHT22;60446;50.752;4.352;2023-05-03T00:24:35;5.80;67.10
72440;DHT22;60446;50.752;4.352;2023-05-03T00:27:03;5.70;67.10
72440;DHT22;60446;50.752;4.352;2023-05-03T00:29:31;5.70;68.30
72440;DHT22;60446;50.752;4.352;2023-05-03T00:31:58;5.70;67.50
72440;DHT22;60446;50.752;4.352;2023-05-03T00:34:26;5.70;67.90
72440;DHT22;60446;50.752;4.352;2023-05-03T00:36:53;5.60;67.70
72440;DHT22;60446;50.752;4.352;2023-05-03T00:39:20;5.60;67.90
72440;DHT22;60446;50.752;4.352;2023-05-03T00:41:47;5.60;67.60
72440;DHT22;60446;50.752;4.352;2023-05-03T00:44:14;5.60;67.70
72440;DHT22;60446;50.752;4.352;2023-05-03T00:46:42;5.60;67.60
72440;DHT22;60446;50.752;4.352;2023-05-03T00:49:09;5.60;67.60
72440;DHT22;60446;50.752;4.352;2023-05-03T00:51:37;5.60;68.00
72440;DHT22;60446;50.752;4.352;2023-05-03T00:54:05;5.50;67.80
72440;DHT22;60446;50.752;4.352;2023-05-03T00:56:33;5.50;68.40
72440;DHT22;60446;50.752;4.352;2023-05-03T00:59:17;5.40;69.80
72440;DHT22;60446;50.752;4.352;2023-05-03T01:01:49;5.40;69.20
72440;DHT22;60446;50.752;4.352;2023-05-03T01:04:19;5.40;68.80
72440;DHT22;60446;50.752;4.352;2023-05-03T01:15:24;5.30;69.10
72440;DHT22;60446;50.752;4.352;2023-05-03T01:18:10;5.20;69.00
72440;DHT22;60446;50.752;4.352;2023-05-03T01:20:43;5.20;69.40
72440;DHT22;60446;50.752;4.352;2023-05-03T01:23:34;5.20;69.40
72440;DHT22;60446;50.752;4.352;2023-05-03T01:28:47;5.20;70.60
72440;DHT22;60446;50.752;4.352;2023-05-03T01:31:22;5.10;70.00
72440;DHT22;60446;50.752;4.352;2023-05-03T01:34:04;5.10;69.70
72440;DHT22;60446;50.752;4.352;2023-05-03T01:36:42;5.10;70.30
72440;DHT22;60446;50.752;4.352;2023-05-03T01:39:21;5.10;70.30
72440;DHT22;60446;50.752;4.352;2023-05-03T01:41:51;5.00;70.30
72440;DHT22;60446;50.752;4.352;2023-05-03T01:44:20;5.00;71.00
72440;DHT22;60446;50.752;4.352;2023-05-03T01:46:48;5.00;71.20
72440;DHT22;60446;50.752;4.352;2023-05-03T01:49:15;4.90;70.70
72440;DHT22;60446;50.752;4.352;2023-05-03T01:51:43;4.80;70.40
72440;DHT22;60446;50.752;4.352;2023-05-03T01:54:10;4.80;71.10
72440;DHT22;60446;50.752;4.352;2023-05-03T01:56:37;4.70;70.50
72440;DHT22;60446;50.752;4.352;2023-05-03T01:59:04;4.80;71.00
72440;DHT22;60446;50.752;4.352;2023-05-03T02:01:32;4.80;71.60
72440;DHT22;60446;50.752;4.352;2023-05-03T02:03:59;4.70;71.60
72440;DHT22;60446;50.752;4.352;2023-05-03T02:06:27;4.70;70.90
72440;DHT22;60446;50.752;4.352;2023-05-03T02:08:58;4.70;71.10
72440;DHT22;60446;50.752;4.352;2023-05-03T02:11:25;4.60;71.60
72440;DHT22;60446;50.752;4.352;2023-05-03T02:13:52;4.60;71.20
72440;DHT22;60446;50.752;4.352;2023-05-03T02:16:19;4.60;71.20
72440;DHT22;60446;50.752;4.352;2023-05-03T02:18:47;4.70;71.10
72440;DHT22;60446;50.752;4.352;2023-05-03T02:21:14;4.70;70.90
72440;DHT22;60446;50.752;4.352;2023-05-03T02:23:42;4.60;71.10
72440;DHT22;60446;50.752;4.352;2023-05-03T02:26:09;4.60;71.20
72440;DHT22;60446;50.752;4.352;2023-05-03T02:28:37;4.60;71.30
72440;DHT22;60446;50.752;4.352;2023-05-03T02:31:04;4.60;71.40
72440;DHT22;60446;50.752;4.352;2023-05-03T02:33:32;4.60;71.50
72440;DHT22;60446;50.752;4.352;2023-05-03T02:35:59;4.60;71.50
72440;DHT22;60446;50.752;4.352;2023-05-03T02:38:27;4.50;71.70
72440;DHT22;60446;50.752;4.352;2023-05-03T02:40:54;4.50;71.80
72440;DHT22;60446;50.752;4.352;2023-05-03T02:43:22;4.50;71.90
72440;DHT22;60446;50.752;4.352;2023-05-03T02:45:49;4.50;71.70
72440;DHT22;60446;50.752;4.352;2023-05-03T02:48:16;4.50;72.00
72440;DHT22;60446;50.752;4.352;2023-05-03T02:50:44;4.40;72.60
72440;DHT22;60446;50.752;4.352;2023-05-03T02:53:11;4.40;72.90
72440;DHT22;60446;50.752;4.352;2023-05-03T02:55:39;4.40;72.70
72440;DHT22;60446;50.752;4.352;2023-05-03T02:58:07;4.40;72.80
72440;DHT22;60446;50.752;4.352;2023-05-03T03:00:35;4.30;73.50
72440;DHT22;60446;50.752;4.352;2023-05-03T03:03:02;4.30;73.30
72440;DHT22;60446;50.752;4.352;2023-05-03T03:05:30;4.20;73.40
72440;DHT22;60446;50.752;4.352;2023-05-03T03:07:57;4.10;73.50
72440;DHT22;60446;50.752;4.352;2023-05-03T03:10:25;4.10;73.70
72440;DHT22;60446;50.752;4.352;2023-05-03T03:12:52;4.10;74.50
72440;DHT22;60446;50.752;4.352;2023-05-03T03:15:29;4.00;74.40
72440;DHT22;60446;50.752;4.352;2023-05-03T03:17:56;4.00;74.30
72440;DHT22;60446;50.752;4.352;2023-05-03T03:20:24;4.00;75.10
72440;DHT22;60446;50.752;4.352;2023-05-03T03:22:52;4.00;74.70
72440;DHT22;60446;50.752;4.352;2023-05-03T03:25:19;4.00;74.60
72440;DHT22;60446;50.752;4.352;2023-05-03T03:27:47;3.90;74.70
72440;DHT22;60446;50.752;4.352;2023-05-03T03:30:15;3.90;74.70
72440;DHT22;60446;50.752;4.352;2023-05-03T03:32:53;3.90;75.20
72440;DHT22;60446;50.752;4.352;2023-05-03T03:35:28;3.80;75.20
72440;DHT22;60446;50.752;4.352;2023-05-03T03:37:56;3.90;75.40
72440;DHT22;60446;50.752;4.352;2023-05-03T03:40:23;3.80;75.60
72440;DHT22;60446;50.752;4.352;2023-05-03T03:42:53;3.80;75.10
72440;DHT22;60446;50.752;4.352;2023-05-03T03:45:21;3.70;75.20
72440;DHT22;60446;50.752;4.352;2023-05-03T03:47:49;3.70;75.70
72440;DHT22;60446;50.752;4.352;2023-05-03T03:50:20;3.70;75.20
72440;DHT22;60446;50.752;4.352;2023-05-03T03:52:47;3.60;75.20
72440;DHT22;60446;50.752;4.352;2023-05-03T03:55:15;3.60;75.70
72440;DHT22;60446;50.752;4.352;2023-05-03T03:57:45;3.60;76.10
72440;DHT22;60446;50.752;4.352;2023-05-03T04:00:12;3.60;76.20
72440;DHT22;60446;50.752;4.352;2023-05-03T04:02:45;3.60;75.80
72440;DHT22;60446;50.752;4.352;2023-05-03T04:05:16;3.50;76.00
72440;DHT22;60446;50.752;4.352;2023-05-03T04:07:45;3.60;75.90
72440;DHT22;60446;50.752;4.352;2023-05-03T04:10:14;3.60;75.70
72440;DHT22;60446;50.752;4.352;2023-05-03T04:12:42;3.50;75.60
72440;DHT22;60446;50.752;4.352;2023-05-03T04:15:12;3.50;75.40
72440;DHT22;60446;50.752;4.352;2023-05-03T04:17:40;3.40;76.00
72440;DHT22;60446;50.752;4.352;2023-05-03T04:20:10;3.40;76.30
72440;DHT22;60446;50.752;4.352;2023-05-03T04:22:39;3.40;76.30
72440;DHT22;60446;50.752;4.352;2023-05-03T04:25:10;3.40;76.60
72440;DHT22;60446;50.752;4.352;2023-05-03T04:27:46;3.40;76.10
72440;DHT22;60446;50.752;4.352;2023-05-03T04:30:15;3.40;76.30
72440;DHT22;60446;50.752;4.352;2023-05-03T04:32:47;3.40;76.50
72440;DHT22;60446;50.752;4.352;2023-05-03T04:35:14;3.40;76.50
72440;DHT22;60446;50.752;4.352;2023-05-03T04:37:45;3.40;76.00
72440;DHT22;60446;50.752;4.352;2023-05-03T04:40:17;3.40;77.00
72440;DHT22;60446;50.752;4.352;2023-05-03T04:42:51;3.50;77.30
72440;DHT22;60446;50.752;4.352;2023-05-03T04:45:18;3.50;77.10
72440;DHT22;60446;50.752;4.352;2023-05-03T04:47:47;3.50;77.00
72440;DHT22;60446;50.752;4.352;2023-05-03T04:50:15;3.60;76.90
72440;DHT22;60446;50.752;4.352;2023-05-03T04:52:47;3.60;76.30
72440;DHT22;60446;50.752;4.352;2023-05-03T04:55:14;3.60;76.30
72440;DHT22;60446;50.752;4.352;2023-05-03T04:57:42;3.70;76.10
72440;DHT22;60446;50.752;4.352;2023-05-03T05:00:12;3.80;76.10
72440;DHT22;60446;50.752;4.352;2023-05-03T05:02:44;3.80;75.70
72440;DHT22;60446;50.752;4.352;2023-05-03T05:05:13;3.80;75.50
72440;DHT22;60446;50.752;4.352;2023-05-03T05:07:40;3.90;75.90
72440;DHT22;60446;50.752;4.352;2023-05-03T05:10:11;3.90;75.60
72440;DHT22;60446;50.752;4.352;2023-05-03T05:12:39;4.00;75.80
72440;DHT22;60446;50.752;4.352;2023-05-03T05:15:07;4.00;75.60
72440;DHT22;60446;50.752;4.352;2023-05-03T05:17:35;4.10;75.10
72440;DHT22;60446;50.752;4.352;2023-05-03T05:20:06;4.10;74.50
72440;DHT22;60446;50.752;4.352;2023-05-03T05:22:42;4.20;74.90
72440;DHT22;60446;50.752;4.352;2023-05-03T05:25:09;4.20;74.40
72440;DHT22;60446;50.752;4.352;2023-05-03T05:27:38;4.30;74.30
72440;DHT22;60446;50.752;4.352;2023-05-03T05:30:08;4.30;74.40
72440;DHT22;60446;50.752;4.352;2023-05-03T05:32:39;4.40;73.80
72440;DHT22;60446;50.752;4.352;2023-05-03T05:35:10;4.40;74.10
72440;DHT22;60446;50.752;4.352;2023-05-03T05:37:38;4.50;73.40
72440;DHT22;60446;50.752;4.352;2023-05-03T05:40:06;4.60;73.90
72440;DHT22;60446;50.752;4.352;2023-05-03T05:43:00;4.60;73.00
72440;DHT22;60446;50.752;4.352;2023-05-03T05:45:31;4.70;73.20
72440;DHT22;60446;50.752;4.352;2023-05-03T05:48:01;4.80;72.70
72440;DHT22;60446;50.752;4.352;2023-05-03T05:50:29;4.90;72.50
72440;DHT22;60446;50.752;4.352;2023-05-03T05:53:01;4.90;72.40
72440;DHT22;60446;50.752;4.352;2023-05-03T05:55:34;5.00;72.50
72440;DHT22;60446;50.752;4.352;2023-05-03T05:58:01;5.10;72.30
72440;DHT22;60446;50.752;4.352;2023-05-03T06:00:36;5.10;72.40
72440;DHT22;60446;50.752;4.352;2023-05-03T06:03:04;5.20;72.10
72440;DHT22;60446;50.752;4.352;2023-05-03T06:05:31;5.30;71.40
72440;DHT22;60446;50.752;4.352;2023-05-03T06:07:59;5.30;71.10
72440;DHT22;60446;50.752;4.352;2023-05-03T06:10:26;5.40;71.60
72440;DHT22;60446;50.752;4.352;2023-05-03T06:12:55;5.50;71.90
72440;DHT22;60446;50.752;4.352;2023-05-03T06:15:24;5.60;71.10
72440;DHT22;60446;50.752;4.352;2023-05-03T06:17:52;5.70;71.10
72440;DHT22;60446;50.752;4.352;2023-05-03T06:20:19;5.80;70.50
72440;DHT22;60446;50.752;4.352;2023-05-03T06:22:48;5.80;70.80
72440;DHT22;60446;50.752;4.352;2023-05-03T06:25:16;5.90;69.40
72440;DHT22;60446;50.752;4.352;2023-05-03T06:27:48;6.00;70.20
72440;DHT22;60446;50.752;4.352;2023-05-03T06:30:18;6.00;69.60
72440;DHT22;60446;50.752;4.352;2023-05-03T06:32:47;6.10;70.10
72440;DHT22;60446;50.752;4.352;2023-05-03T06:35:15;6.20;70.00
72440;DHT22;60446;50.752;4.352;2023-05-03T06:37:44;6.30;68.50
72440;DHT22;60446;50.752;4.352;2023-05-03T06:40:11;6.40;68.10
72440;DHT22;60446;50.752;4.352;2023-05-03T06:42:38;6.40;69.00
72440;DHT22;60446;50.752;4.352;2023-05-03T06:45:20;6.50;68.90
72440;DHT22;60446;50.752;4.352;2023-05-03T06:47:47;6.60;69.10
72440;DHT22;60446;50.752;4.352;2023-05-03T06:50:16;6.70;68.20
72440;DHT22;60446;50.752;4.352;2023-05-03T06:52:45;6.80;68.80
72440;DHT22;60446;50.752;4.352;2023-05-03T06:55:13;6.90;66.70
72440;DHT22;60446;50.752;4.352;2023-05-03T06:57:40;6.90;68.10
72440;DHT22;60446;50.752;4.352;2023-05-03T07:00:09;7.00;68.60
72440;DHT22;60446;50.752;4.352;2023-05-03T07:02:37;7.10;68.40
72440;DHT22;60446;50.752;4.352;2023-05-03T07:05:04;7.30;67.60
72440;DHT22;60446;50.752;4.352;2023-05-03T07:07:32;7.40;67.20
72440;DHT22;60446;50.752;4.352;2023-05-03T07:09:59;7.40;65.40
72440;DHT22;60446;50.752;4.352;2023-05-03T07:12:27;7.50;66.30
72440;DHT22;60446;50.752;4.352;2023-05-03T07:14:54;7.60;65.20
72440;DHT22;60446;50.752;4.352;2023-05-03T07:17:22;7.60;64.80
72440;DHT22;60446;50.752;4.352;2023-05-03T07:19:50;7.60;66.30
72440;DHT22;60446;50.752;4.352;2023-05-03T07:22:18;7.70;65.30
72440;DHT22;60446;50.752;4.352;2023-05-03T07:24:51;7.80;64.60
72440;DHT22;60446;50.752;4.352;2023-05-03T07:27:25;7.90;66.20
72440;DHT22;60446;50.752;4.352;2023-05-03T07:29:54;8.00;64.50
72440;DHT22;60446;50.752;4.352;2023-05-03T07:32:21;8.10;65.40
72440;DHT22;60446;50.752;4.352;2023-05-03T07:34:49;8.20;64.50
72440;DHT22;60446;50.752;4.352;2023-05-03T07:37:16;8.30;63.90
72440;DHT22;60446;50.752;4.352;2023-05-03T07:39:43;8.30;65.50
72440;DHT22;60446;50.752;4.352;2023-05-03T07:42:11;8.40;64.40
72440;DHT22;60446;50.752;4.352;2023-05-03T07:44:38;8.40;64.30
72440;DHT22;60446;50.752;4.352;2023-05-03T07:47:06;8.50;62.80
72440;DHT22;60446;50.752;4.352;2023-05-03T07:49:36;8.60;64.10
72440;DHT22;60446;50.752;4.352;2023-05-03T07:52:03;8.70;63.70
72440;DHT22;60446;50.752;4.352;2023-05-03T07:54:33;8.80;63.60
72440;DHT22;60446;50.752;4.352;2023-05-03T07:57:03;8.90;63.10
72440;DHT22;60446;50.752;4.352;2023-05-03T07:59:31;9.00;62.80
72440;DHT22;60446;50.752;4.352;2023-05-03T08:01:59;9.00;62.20
72440;DHT22;60446;50.752;4.352;2023-05-03T08:04:30;9.10;61.90
72440;DHT22;60446;50.752;4.352;2023-05-03T08:07:02;9.20;63.70
72440;DHT22;60446;50.752;4.352;2023-05-03T08:09:36;9.20;62.70
72440;DHT22;60446;50.752;4.352;2023-05-03T08:12:27;9.30;63.60
72440;DHT22;60446;50.752;4.352;2023-05-03T08:15:02;9.40;62.60
72440;DHT22;60446;50.752;4.352;2023-05-03T08:17:45;9.50;61.70
72440;DHT22;60446;50.752;4.352;2023-05-03T08:20:18;9.70;61.70
72440;DHT22;60446;50.752;4.352;2023-05-03T08:22:51;9.80;60.30
72440;DHT22;60446;50.752;4.352;2023-05-03T08:25:35;9.90;59.70
72440;DHT22;60446;50.752;4.352;2023-05-03T08:28:29;9.90;59.90
72440;DHT22;60446;50.752;4.352;2023-05-03T08:31:16;10.00;61.10
72440;DHT22;60446;50.752;4.352;2023-05-03T08:33:54;10.10;60.10
72440;DHT22;60446;50.752;4.352;2023-05-03T08:36:33;10.10;58.80
72440;DHT22;60446;50.752;4.352;2023-05-03T08:39:18;10.10;59.00
72440;DHT22;60446;50.752;4.352;2023-05-03T08:42:07;10.20;58.30
72440;DHT22;60446;50.752;4.352;2023-05-03T08:44:50;10.20;58.60
72440;DHT22;60446;50.752;4.352;2023-05-03T08:47:35;10.30;59.60
72440;DHT22;60446;50.752;4.352;2023-05-03T08:50:14;10.40;57.70
72440;DHT22;60446;50.752;4.352;2023-05-03T08:52:58;10.60;57.50
72440;DHT22;60446;50.752;4.352;2023-05-03T08:55:30;10.70;57.00
72440;DHT22;60446;50.752;4.352;2023-05-03T08:58:45;10.70;55.40
72440;DHT22;60446;50.752;4.352;2023-05-03T09:01:43;10.90;55.40
72440;DHT22;60446;50.752;4.352;2023-05-03T09:04:37;11.00;56.10
72440;DHT22;60446;50.752;4.352;2023-05-03T09:07:42;11.10;56.50
72440;DHT22;60446;50.752;4.352;2023-05-03T09:10:52;11.10;54.70
72440;DHT22;60446;50.752;4.352;2023-05-03T09:14:06;11.10;56.60
72440;DHT22;60446;50.752;4.352;2023-05-03T09:17:37;11.30;55.70
72440;DHT22;60446;50.752;4.352;2023-05-03T09:20:35;11.40;54.10
72440;DHT22;60446;50.752;4.352;2023-05-03T09:23:08;11.50;55.20
72440;DHT22;60446;50.752;4.352;2023-05-03T09:32:49;11.70;54.40
72440;DHT22;60446;50.752;4.352;2023-05-03T09:36:08;11.90;53.00
72440;DHT22;60446;50.752;4.352;2023-05-03T09:39:20;12.00;52.90
72440;DHT22;60446;50.752;4.352;2023-05-03T09:42:36;12.10;53.40
72440;DHT22;60446;50.752;4.352;2023-05-03T09:49:45;12.10;53.20
72440;DHT22;60446;50.752;4.352;2023-05-03T09:53:08;12.30;53.40
72440;DHT22;60446;50.752;4.352;2023-05-03T09:56:29;12.40;54.10
72440;DHT22;60446;50.752;4.352;2023-05-03T09:59:22;12.40;51.40
72440;DHT22;60446;50.752;4.352;2023-05-03T10:02:11;12.40;53.70
72440;DHT22;60446;50.752;4.352;2023-05-03T10:04:48;12.30;53.30
72440;DHT22;60446;50.752;4.352;2023-05-03T10:07:27;12.40;55.20
72440;DHT22;60446;50.752;4.352;2023-05-03T10:09:58;12.60;54.50
72440;DHT22;60446;50.752;4.352;2023-05-03T10:12:38;12.60;53.10
72440;DHT22;60446;50.752;4.352;2023-05-03T10:15:09;12.50;54.80
72440;DHT22;60446;50.752;4.352;2023-05-03T10:17:42;12.80;52.90
72440;DHT22;60446;50.752;4.352;2023-05-03T10:20:32;12.90;54.50
72440;DHT22;60446;50.752;4.352;2023-05-03T10:23:08;13.10;52.50
72440;DHT22;60446;50.752;4.352;2023-05-03T10:25:38;13.30;51.90
72440;DHT22;60446;50.752;4.352;2023-05-03T10:28:09;13.40;52.10
72440;DHT22;60446;50.752;4.352;2023-05-03T10:30:38;13.50;49.40
72440;DHT22;60446;50.752;4.352;2023-05-03T10:35:41;13.70;49.30
72440;DHT22;60446;50.752;4.352;2023-05-03T10:38:14;13.70;51.00
72440;DHT22;60446;50.752;4.352;2023-05-03T10:40:43;13.70;48.50
72440;DHT22;60446;50.752;4.352;2023-05-03T10:46:05;13.30;48.50
72440;DHT22;60446;50.752;4.352;2023-05-03T10:48:37;13.20;49.50
72440;DHT22;60446;50.752;4.352;2023-05-03T10:53:59;13.40;48.40
72440;DHT22;60446;50.752;4.352;2023-05-03T10:56:29;13.60;52.30
72440;DHT22;60446;50.752;4.352;2023-05-03T10:58:56;13.70;50.40
72440;DHT22;60446;50.752;4.352;2023-05-03T11:01:26;13.90;51.60
72440;DHT22;60446;50.752;4.352;2023-05-03T11:06:33;14.30;48.50
72440;DHT22;60446;50.752;4.352;2023-05-03T11:09:06;14.50;49.60
72440;DHT22;60446;50.752;4.352;2023-05-03T11:11:36;14.50;50.20
72440;DHT22;60446;50.752;4.352;2023-05-03T11:14:06;14.60;46.90
72440;DHT22;60446;50.752;4.352;2023-05-03T11:16:39;14.30;47.90
72440;DHT22;60446;50.752;4.352;2023-05-03T11:19:23;14.40;47.60
72440;DHT22;60446;50.752;4.352;2023-05-03T11:21:57;14.30;45.60
72440;DHT22;60446;50.752;4.352;2023-05-03T11:24:40;14.20;48.00
72440;DHT22;60446;50.752;4.352;2023-05-03T11:27:18;14.30;48.30
72440;DHT22;60446;50.752;4.352;2023-05-03T11:29:58;14.40;46.40
72440;DHT22;60446;50.752;4.352;2023-05-03T11:32:36;14.60;49.50
72440;DHT22;60446;50.752;4.352;2023-05-03T11:35:06;14.70;46.30
72440;DHT22;60446;50.752;4.352;2023-05-03T11:37:38;14.80;47.80
72440;DHT22;60446;50.752;4.352;2023-05-03T11:40:15;14.90;44.10
72440;DHT22;60446;50.752;4.352;2023-05-03T11:43:04;15.10;47.30
72440;DHT22;60446;50.752;4.352;2023-05-03T11:45:41;15.00;45.80
72440;DHT22;60446;50.752;4.352;2023-05-03T11:48:12;15.10;47.90
72440;DHT22;60446;50.752;4.352;2023-05-03T11:50:47;15.40;47.10
72440;DHT22;60446;50.752;4.352;2023-05-03T11:53:23;15.40;46.40
72440;DHT22;60446;50.752;4.352;2023-05-03T11:55:59;15.10;44.80
72440;DHT22;60446;50.752;4.352;2023-05-03T11:58:52;14.80;45.80
72440;DHT22;60446;50.752;4.352;2023-05-03T12:01:28;14.60;46.80
72440;DHT22;60446;50.752;4.352;2023-05-03T12:04:00;14.50;45.10
72440;DHT22;60446;50.752;4.352;2023-05-03T12:06:37;14.50;46.20
72440;DHT22;60446;50.752;4.352;2023-05-03T12:09:16;14.50;46.30
72440;DHT22;60446;50.752;4.352;2023-05-03T12:11:49;14.60;47.40
72440;DHT22;60446;50.752;4.352;2023-05-03T12:14:26;14.80;46.90
72440;DHT22;60446;50.752;4.352;2023-05-03T12:16:55;14.90;46.20
72440;DHT22;60446;50.752;4.352;2023-05-03T12:19:31;15.00;48.10
72440;DHT22;60446;50.752;4.352;2023-05-03T12:22:03;15.10;45.10
72440;DHT22;60446;50.752;4.352;2023-05-03T12:24:51;15.10;45.70
72440;DHT22;60446;50.752;4.352;2023-05-03T12:27:20;15.40;48.10
72440;DHT22;60446;50.752;4.352;2023-05-03T12:29:49;15.50;48.70
72440;DHT22;60446;50.752;4.352;2023-05-03T12:32:26;15.70;43.80
72440;DHT22;60446;50.752;4.352;2023-05-03T12:34:56;15.50;47.00
72440;DHT22;60446;50.752;4.352;2023-05-03T12:37:33;15.60;45.90
72440;DHT22;60446;50.752;4.352;2023-05-03T12:40:12;15.80;46.70
72440;DHT22;60446;50.752;4.352;2023-05-03T12:43:08;16.20;45.80
72440;DHT22;60446;50.752;4.352;2023-05-03T12:45:38;15.90;43.00
72440;DHT22;60446;50.752;4.352;2023-05-03T12:48:09;15.60;42.90
72440;DHT22;60446;50.752;4.352;2023-05-03T12:50:39;15.90;46.00
72440;DHT22;60446;50.752;4.352;2023-05-03T12:53:13;16.10;46.80
72440;DHT22;60446;50.752;4.352;2023-05-03T12:55:48;16.50;46.60
72440;DHT22;60446;50.752;4.352;2023-05-03T12:58:26;16.50;46.50
72440;DHT22;60446;50.752;4.352;2023-05-03T13:00:59;16.60;43.50
72440;DHT22;60446;50.752;4.352;2023-05-03T13:03:42;16.70;44.20
72440;DHT22;60446;50.752;4.352;2023-05-03T13:06:35;16.80;43.40
72440;DHT22;60446;50.752;4.352;2023-05-03T13:09:10;16.90;46.80
72440;DHT22;60446;50.752;4.352;2023-05-03T13:11:46;17.00;44.40
72440;DHT22;60446;50.752;4.352;2023-05-03T13:14:16;16.90;45.00
72440;DHT22;60446;50.752;4.352;2023-05-03T13:16:44;16.80;47.90
72440;DHT22;60446;50.752;4.352;2023-05-03T13:19:12;17.10;45.80
72440;DHT22;60446;50.752;4.352;2023-05-03T13:21:39;17.30;44.60
72440;DHT22;60446;50.752;4.352;2023-05-03T13:24:12;17.40;44.30
72440;DHT22;60446;50.752;4.352;2023-05-03T13:26:42;17.50;46.30
72440;DHT22;60446;50.752;4.352;2023-05-03T13:29:09;17.60;42.50
72440;DHT22;60446;50.752;4.352;2023-05-03T13:32:00;17.50;43.80
72440;DHT22;60446;50.752;4.352;2023-05-03T13:34:36;17.50;42.50
72440;DHT22;60446;50.752;4.352;2023-05-03T13:37:09;16.90;40.70
72440;DHT22;60446;50.752;4.352;2023-05-03T13:39:45;16.80;47.60
72440;DHT22;60446;50.752;4.352;2023-05-03T13:42:13;17.10;47.10
72440;DHT22;60446;50.752;4.352;2023-05-03T13:44:40;17.30;44.30
72440;DHT22;60446;50.752;4.352;2023-05-03T13:47:08;17.20;41.40
72440;DHT22;60446;50.752;4.352;2023-05-03T13:49:41;17.00;41.10
72440;DHT22;60446;50.752;4.352;2023-05-03T13:52:10;16.80;42.60
72440;DHT22;60446;50.752;4.352;2023-05-03T13:54:43;16.90;44.80
72440;DHT22;60446;50.752;4.352;2023-05-03T13:57:11;16.90;44.40
72440;DHT22;60446;50.752;4.352;2023-05-03T13:59:38;17.00;41.20
72440;DHT22;60446;50.752;4.352;2023-05-03T14:02:07;16.80;43.30
72440;DHT22;60446;50.752;4.352;2023-05-03T14:04:34;16.90;43.20
72440;DHT22;60446;50.752;4.352;2023-05-03T14:07:09;17.10;40.90
72440;DHT22;60446;50.752;4.352;2023-05-03T14:09:36;17.30;40.70
72440;DHT22;60446;50.752;4.352;2023-05-03T14:12:17;17.40;42.50
72440;DHT22;60446;50.752;4.352;2023-05-03T14:14:47;17.40;41.30
72440;DHT22;60446;50.752;4.352;2023-05-03T14:17:16;17.40;42.80
72440;DHT22;60446;50.752;4.352;2023-05-03T14:19:44;17.50;43.30
72440;DHT22;60446;50.752;4.352;2023-05-03T14:22:11;17.70;44.60
72440;DHT22;60446;50.752;4.352;2023-05-03T14:24:38;17.90;45.20
72440;DHT22;60446;50.752;4.352;2023-05-03T14:27:10;17.90;41.60
72440;DHT22;60446;50.752;4.352;2023-05-03T14:29:41;17.70;39.10
72440;DHT22;60446;50.752;4.352;2023-05-03T14:32:12;17.60;40.60
72440;DHT22;60446;50.752;4.352;2023-05-03T14:34:49;17.70;40.00
72440;DHT22;60446;50.752;4.352;2023-05-03T14:37:17;17.60;43.30
72440;DHT22;60446;50.752;4.352;2023-05-03T14:39:44;17.70;41.10
72440;DHT22;60446;50.752;4.352;2023-05-03T14:42:11;18.00;39.60
72440;DHT22;60446;50.752;4.352;2023-05-03T14:44:38;18.20;40.20
72440;DHT22;60446;50.752;4.352;2023-05-03T14:47:06;18.20;39.80
72440;DHT22;60446;50.752;4.352;2023-05-03T14:49:33;18.10;39.10
72440;DHT22;60446;50.752;4.352;2023-05-03T14:52:06;17.90;39.10
72440;DHT22;60446;50.752;4.352;2023-05-03T14:54:36;18.10;39.70
72440;DHT22;60446;50.752;4.352;2023-05-03T14:57:03;18.60;41.50
72440;DHT22;60446;50.752;4.352;2023-05-03T14:59:31;19.40;40.70
72440;DHT22;60446;50.752;4.352;2023-05-03T15:01:59;19.70;36.30
72440;DHT22;60446;50.752;4.352;2023-05-03T15:04:28;20.00;37.50
72440;DHT22;60446;50.752;4.352;2023-05-03T15:07:00;20.10;38.40
72440;DHT22;60446;50.752;4.352;2023-05-03T15:09:32;20.20;37.20
72440;DHT22;60446;50.752;4.352;2023-05-03T15:12:02;19.80;36.70
72440;DHT22;60446;50.752;4.352;2023-05-03T15:14:29;19.80;39.60
72440;DHT22;60446;50.752;4.352;2023-05-03T15:16:57;20.20;37.80
72440;DHT22;60446;50.752;4.352;2023-05-03T15:19:24;20.50;36.90
72440;DHT22;60446;50.752;4.352;2023-05-03T15:21:52;21.00;37.60
72440;DHT22;60446;50.752;4.352;2023-05-03T15:24:19;21.30;34.70
72440;DHT22;60446;50.752;4.352;2023-05-03T15:26:47;21.60;37.90
72440;DHT22;60446;50.752;4.352;2023-05-03T15:29:15;21.50;34.30
72440;DHT22;60446;50.752;4.352;2023-05-03T15:31:42;20.70;35.30
72440;DHT22;60446;50.752;4.352;2023-05-03T15:34:09;20.30;36.70
72440;DHT22;60446;50.752;4.352;2023-05-03T15:36:37;20.60;36.90
72440;DHT22;60446;50.752;4.352;2023-05-03T15:39:04;20.80;36.00
72440;DHT22;60446;50.752;4.352;2023-05-03T15:41:31;20.90;38.50
72440;DHT22;60446;50.752;4.352;2023-05-03T15:43:59;21.40;36.10
72440;DHT22;60446;50.752;4.352;2023-05-03T15:46:33;21.80;38.20
72440;DHT22;60446;50.752;4.352;2023-05-03T15:49:01;22.00;35.70
72440;DHT22;60446;50.752;4.352;2023-05-03T15:51:29;21.60;34.70
72440;DHT22;60446;50.752;4.352;2023-05-03T15:53:57;21.70;35.50
72440;DHT22;60446;50.752;4.352;2023-05-03T15:56:29;21.40;34.10
72440;DHT22;60446;50.752;4.352;2023-05-03T15:58:59;21.50;35.90
72440;DHT22;60446;50.752;4.352;2023-05-03T16:01:28;21.80;34.90
72440;DHT22;60446;50.752;4.352;2023-05-03T16:03:58;21.50;35.00
72440;DHT22;60446;50.752;4.352;2023-05-03T16:06:25;21.40;35.80
72440;DHT22;60446;50.752;4.352;2023-05-03T16:08:54;20.80;34.70
72440;DHT22;60446;50.752;4.352;2023-05-03T16:11:21;20.50;35.40
72440;DHT22;60446;50.752;4.352;2023-05-03T16:13:48;20.70;36.40
72440;DHT22;60446;50.752;4.352;2023-05-03T16:16:19;20.80;35.70
72440;DHT22;60446;50.752;4.352;2023-05-03T16:18:46;20.50;34.70
72440;DHT22;60446;50.752;4.352;2023-05-03T16:21:13;20.50;35.60
72440;DHT22;60446;50.752;4.352;2023-05-03T16:23:42;20.60;35.60
72440;DHT22;60446;50.752;4.352;2023-05-03T16:26:12;21.00;35.60
72440;DHT22;60446;50.752;4.352;2023-05-03T16:28:40;21.30;35.60
72440;DHT22;60446;50.752;4.352;2023-05-03T16:31:07;21.50;36.00
72440;DHT22;60446;50.752;4.352;2023-05-03T16:33:34;21.40;34.50
72440;DHT22;60446;50.752;4.352;2023-05-03T16:36:02;21.10;34.90
72440;DHT22;60446;50.752;4.352;2023-05-03T16:38:29;20.50;34.40
72440;DHT22;60446;50.752;4.352;2023-05-03T16:40:58;20.00;35.60
72440;DHT22;60446;50.752;4.352;2023-05-03T16:43:26;19.70;35.50
72440;DHT22;60446;50.752;4.352;2023-05-03T16:45:57;19.80;35.80
72440;DHT22;60446;50.752;4.352;2023-05-03T16:48:28;20.00;37.10